sensor_id;sensor_type;location;lat;lon;timestamp;pressure;altitude;pressure_sealevel;temperature;humidity
67545;BME280;54380;47.770;11.150;2023-07-29T00:00:36;94614.06;;;19.26;62.76
67545;BME280;54380;47.770;11.150;2023-07-29T00:03:02;94609.66;;;19.22;62.96
67545;BME280;54380;47.770;11.150;2023-07-29T00:05:29;94608.09;;;19.21;62.63
67545;BME280;54380;47.770;11.150;2023-07-29T00:07:56;94598.16;;;19.21;62.75
67545;BME280;54380;47.770;11.150;2023-07-29T00:10:22;94602.25;;;19.19;62.60
67545;BME280;54380;47.770;11.150;2023-07-29T00:12:51;94603.19;;;19.14;62.81
67545;BME280;54380;47.770;11.150;2023-07-29T00:15:17;94609.97;;;19.12;62.52
67545;BME280;54380;47.770;11.150;2023-07-29T00:17:44;94603.19;;;19.14;62.06
67545;BME280;54380;47.770;11.150;2023-07-29T00:20:11;94601.75;;;19.17;62.23
67545;BME280;54380;47.770;11.150;2023-07-29T00:22:38;94608.72;;;19.18;61.76
67545;BME280;54380;47.770;11.150;2023-07-29T00:25:05;94601.31;;;19.15;62.28
67545;BME280;54380;47.770;11.150;2023-07-29T00:27:32;94601.25;;;19.06;62.37
67545;BME280;54380;47.770;11.150;2023-07-29T00:30:00;94593.84;;;18.94;62.30
67545;BME280;54380;47.770;11.150;2023-07-29T00:32:26;94600.44;;;18.88;62.44
67545;BME280;54380;47.770;11.150;2023-07-29T00:34:53;94604.81;;;18.84;62.27
67545;BME280;54380;47.770;11.150;2023-07-29T00:37:20;94589.41;;;18.81;62.41
67545;BME280;54380;47.770;11.150;2023-07-29T00:39:46;94589.41;;;18.81;62.38
67545;BME280;54380;47.770;11.150;2023-07-29T00:42:13;94588.63;;;18.80;62.42
67545;BME280;54380;47.770;11.150;2023-07-29T00:44:40;94573.97;;;18.78;62.32
67545;BME280;54380;47.770;11.150;2023-07-29T00:47:09;94583.41;;;18.75;62.15
67545;BME280;54380;47.770;11.150;2023-07-29T00:49:37;94584.28;;;18.71;62.38
67545;BME280;54380;47.770;11.150;2023-07-29T00:52:04;94582.03;;;18.64;62.58
67545;BME280;54380;47.770;11.150;2023-07-29T00:54:31;94573.25;;;18.63;62.54
67545;BME280;54380;47.770;11.150;2023-07-29T00:56:58;94580.63;;;18.67;62.43
67545;BME280;54380;47.770;11.150;2023-07-29T00:59:25;94573.72;;;18.65;62.51
67545;BME280;54380;47.770;11.150;2023-07-29T01:01:52;94572.75;;;18.61;62.30
67545;BME280;54380;47.770;11.150;2023-07-29T01:04:20;94572.59;;;18.58;62.51
67545;BME280;54380;47.770;11.150;2023-07-29T01:06:49;94567.22;;;18.49;62.50
67545;BME280;54380;47.770;11.150;2023-07-29T01:09:18;94562.63;;;18.41;62.46
67545;BME280;54380;47.770;11.150;2023-07-29T01:11:52;94567.78;;;18.37;62.64
67545;BME280;54380;47.770;11.150;2023-07-29T01:14:25;94558.81;;;18.33;62.86
67545;BME280;54380;47.770;11.150;2023-07-29T01:16:58;94558.03;;;18.33;62.96
67545;BME280;54380;47.770;11.150;2023-07-29T01:19:34;94555.22;;;18.38;62.88
67545;BME280;54380;47.770;11.150;2023-07-29T01:22:08;94559.47;;;18.39;62.60
67545;BME280;54380;47.770;11.150;2023-07-29T01:24:38;94551.44;;;18.39;62.84
67545;BME280;54380;47.770;11.150;2023-07-29T01:27:04;94559.94;;;18.41;62.75
67545;BME280;54380;47.770;11.150;2023-07-29T01:29:31;94546.59;;;18.41;62.59
67545;BME280;54380;47.770;11.150;2023-07-29T01:32:02;94544.88;;;18.45;62.57
67545;BME280;54380;47.770;11.150;2023-07-29T01:34:32;94546.47;;;18.46;62.32
67545;BME280;54380;47.770;11.150;2023-07-29T01:37:01;94541.13;;;18.46;62.23
67545;BME280;54380;47.770;11.150;2023-07-29T01:39:29;94540.31;;;18.46;62.43
67545;BME280;54380;47.770;11.150;2023-07-29T01:42:00;94542.69;;;18.47;62.27
67545;BME280;54380;47.770;11.150;2023-07-29T01:44:28;94543.47;;;18.48;62.35
67545;BME280;54380;47.770;11.150;2023-07-29T01:46:55;94538.91;;;18.48;61.96
67545;BME280;54380;47.770;11.150;2023-07-29T01:49:21;94534.03;;;18.50;62.07
67545;BME280;54380;47.770;11.150;2023-07-29T01:51:48;94524.13;;;18.51;62.04
67545;BME280;54380;47.770;11.150;2023-07-29T01:54:15;94532.16;;;18.51;61.91
67545;BME280;54380;47.770;11.150;2023-07-29T01:56:41;94528.69;;;18.50;61.92
67545;BME280;54380;47.770;11.150;2023-07-29T01:59:09;94551.66;;;18.51;61.77
67545;BME280;54380;47.770;11.150;2023-07-29T02:01:36;94546.63;;;18.50;61.95
67545;BME280;54380;47.770;11.150;2023-07-29T02:04:03;94557.31;;;18.50;61.93
67545;BME280;54380;47.770;11.150;2023-07-29T02:06:30;94565.31;;;18.50;62.21
67545;BME280;54380;47.770;11.150;2023-07-29T02:08:56;94591.75;;;18.51;62.29
67545;BME280;54380;47.770;11.150;2023-07-29T02:11:23;94605.91;;;18.52;62.26
67545;BME280;54380;47.770;11.150;2023-07-29T02:13:55;94602.25;;;18.48;62.19
67545;BME280;54380;47.770;11.150;2023-07-29T02:16:23;94606.28;;;18.36;63.02
67545;BME280;54380;47.770;11.150;2023-07-29T02:18:50;94615.03;;;18.28;63.00
67545;BME280;54380;47.770;11.150;2023-07-29T02:21:21;94614.66;;;18.21;63.29
67545;BME280;54380;47.770;11.150;2023-07-29T02:23:48;94612.00;;;18.21;63.16
67545;BME280;54380;47.770;11.150;2023-07-29T02:26:14;94606.38;;;18.23;63.01
67545;BME280;54380;47.770;11.150;2023-07-29T02:28:41;94605.44;;;18.27;63.67
67545;BME280;54380;47.770;11.150;2023-07-29T02:31:13;94605.13;;;18.29;64.30
67545;BME280;54380;47.770;11.150;2023-07-29T02:33:42;94588.94;;;18.25;64.30
67545;BME280;54380;47.770;11.150;2023-07-29T02:36:08;94585.50;;;18.25;64.58
67545;BME280;54380;47.770;11.150;2023-07-29T02:38:35;94577.94;;;18.27;64.43
67545;BME280;54380;47.770;11.150;2023-07-29T02:41:02;94570.41;;;18.29;65.06
67545;BME280;54380;47.770;11.150;2023-07-29T02:43:28;94562.41;;;18.29;65.18
67545;BME280;54380;47.770;11.150;2023-07-29T02:45:55;94557.84;;;18.29;65.73
67545;BME280;54380;47.770;11.150;2023-07-29T02:48:22;94562.69;;;18.27;65.84
67545;BME280;54380;47.770;11.150;2023-07-29T02:50:50;94562.03;;;18.21;66.22
67545;BME280;54380;47.770;11.150;2023-07-29T02:53:16;94576.31;;;18.17;66.79
67545;BME280;54380;47.770;11.150;2023-07-29T02:55:43;94578.31;;;18.11;66.66
67545;BME280;54380;47.770;11.150;2023-07-29T02:58:09;94562.78;;;18.13;66.52
67545;BME280;54380;47.770;11.150;2023-07-29T03:00:36;94564.81;;;18.16;65.94
67545;BME280;54380;47.770;11.150;2023-07-29T03:03:03;94573.34;;;18.18;65.52
67545;BME280;54380;47.770;11.150;2023-07-29T03:05:29;94557.00;;;18.20;65.33
67545;BME280;54380;47.770;11.150;2023-07-29T03:07:58;94557.34;;;18.27;65.14
67545;BME280;54380;47.770;11.150;2023-07-29T03:10:25;94559.59;;;18.34;65.11
67545;BME280;54380;47.770;11.150;2023-07-29T03:12:53;94560.09;;;18.36;65.87
67545;BME280;54380;47.770;11.150;2023-07-29T03:15:22;94559.31;;;18.35;66.30
67545;BME280;54380;47.770;11.150;2023-07-29T03:17:49;94547.94;;;18.30;66.29
67545;BME280;54380;47.770;11.150;2023-07-29T03:20:15;94556.28;;;18.28;66.89
67545;BME280;54380;47.770;11.150;2023-07-29T03:22:44;94551.06;;;18.23;67.13
67545;BME280;54380;47.770;11.150;2023-07-29T03:25:13;94560.75;;;18.19;66.88
67545;BME280;54380;47.770;11.150;2023-07-29T03:27:39;94562.66;;;18.18;66.41
67545;BME280;54380;47.770;11.150;2023-07-29T03:30:06;94566.09;;;18.19;65.74
67545;BME280;54380;47.770;11.150;2023-07-29T03:32:33;94562.84;;;18.22;65.23
67545;BME280;54380;47.770;11.150;2023-07-29T03:35:00;94550.59;;;18.30;65.19
67545;BME280;54380;47.770;11.150;2023-07-29T03:37:27;94554.41;;;18.37;64.87
67545;BME280;54380;47.770;11.150;2023-07-29T03:39:53;94552.41;;;18.43;64.52
67545;BME280;54380;47.770;11.150;2023-07-29T03:42:21;94560.28;;;18.48;64.29
67545;BME280;54380;47.770;11.150;2023-07-29T03:44:48;94556.19;;;18.51;63.94
67545;BME280;54380;47.770;11.150;2023-07-29T03:47:14;94557.97;;;18.55;63.66
67545;BME280;54380;47.770;11.150;2023-07-29T03:49:42;94556.25;;;18.59;63.58
67545;BME280;54380;47.770;11.150;2023-07-29T03:52:09;94557.19;;;18.63;63.92
67545;BME280;54380;47.770;11.150;2023-07-29T03:54:36;94555.03;;;18.65;63.85
67545;BME280;54380;47.770;11.150;2023-07-29T03:57:03;94543.22;;;18.67;63.80
67545;BME280;54380;47.770;11.150;2023-07-29T03:59:31;94546.50;;;18.63;64.40
67545;BME280;54380;47.770;11.150;2023-07-29T04:01:57;94537.56;;;18.59;64.52
67545;BME280;54380;47.770;11.150;2023-07-29T04:04:24;94537.06;;;18.57;64.39
67545;BME280;54380;47.770;11.150;2023-07-29T04:06:51;94530.16;;;18.56;64.04
67545;BME280;54380;47.770;11.150;2023-07-29T04:09:18;94527.78;;;18.55;63.87
67545;BME280;54380;47.770;11.150;2023-07-29T04:11:44;94525.41;;;18.53;64.41
67545;BME280;54380;47.770;11.150;2023-07-29T04:14:11;94522.88;;;18.48;64.83
67545;BME280;54380;47.770;11.150;2023-07-29T04:16:39;94522.22;;;18.42;65.48
67545;BME280;54380;47.770;11.150;2023-07-29T04:19:06;94531.59;;;18.31;66.00
67545;BME280;54380;47.770;11.150;2023-07-29T04:21:33;94532.66;;;18.21;65.97
67545;BME280;54380;47.770;11.150;2023-07-29T04:24:00;94529.81;;;18.18;66.41
67545;BME280;54380;47.770;11.150;2023-07-29T04:26:27;94523.19;;;18.15;66.27
67545;BME280;54380;47.770;11.150;2023-07-29T04:28:54;94530.59;;;18.18;66.30
67545;BME280;54380;47.770;11.150;2023-07-29T04:31:20;94522.28;;;18.20;65.51
67545;BME280;54380;47.770;11.150;2023-07-29T04:33:48;94506.91;;;18.26;65.76
67545;BME280;54380;47.770;11.150;2023-07-29T04:36:16;94511.00;;;18.32;65.58
67545;BME280;54380;47.770;11.150;2023-07-29T04:38:44;94510.09;;;18.36;65.50
67545;BME280;54380;47.770;11.150;2023-07-29T04:41:11;94519.88;;;18.41;65.39
67545;BME280;54380;47.770;11.150;2023-07-29T04:43:37;94509.19;;;18.41;65.15
67545;BME280;54380;47.770;11.150;2023-07-29T04:46:06;94509.63;;;18.43;65.29
67545;BME280;54380;47.770;11.150;2023-07-29T04:48:32;94498.53;;;18.50;65.49
67545;BME280;54380;47.770;11.150;2023-07-29T04:51:01;94492.75;;;18.56;65.24
67545;BME280;54380;47.770;11.150;2023-07-29T04:53:27;94502.66;;;18.64;64.96
67545;BME280;54380;47.770;11.150;2023-07-29T04:55:54;94501.13;;;18.72;64.36
67545;BME280;54380;47.770;11.150;2023-07-29T04:58:21;94498.00;;;18.79;64.56
67545;BME280;54380;47.770;11.150;2023-07-29T05:00:47;94492.22;;;18.85;64.34
67545;BME280;54380;47.770;11.150;2023-07-29T05:03:14;94494.75;;;18.91;64.11
67545;BME280;54380;47.770;11.150;2023-07-29T05:05:40;94489.53;;;18.94;64.19
67545;BME280;54380;47.770;11.150;2023-07-29T05:08:09;94498.06;;;18.96;64.21
67545;BME280;54380;47.770;11.150;2023-07-29T05:10:35;94488.91;;;18.97;64.19
67545;BME280;54380;47.770;11.150;2023-07-29T05:13:02;94514.88;;;18.97;63.88
67545;BME280;54380;47.770;11.150;2023-07-29T05:15:29;94537.38;;;18.96;63.03
67545;BME280;54380;47.770;11.150;2023-07-29T05:17:56;94600.13;;;18.98;62.42
67545;BME280;54380;47.770;11.150;2023-07-29T05:20:22;94570.56;;;18.95;62.58
67545;BME280;54380;47.770;11.150;2023-07-29T05:22:49;94554.31;;;18.82;62.69
67545;BME280;54380;47.770;11.150;2023-07-29T05:25:17;94544.56;;;18.78;63.02
67545;BME280;54380;47.770;11.150;2023-07-29T05:27:43;94534.66;;;18.78;64.78
67545;BME280;54380;47.770;11.150;2023-07-29T05:30:10;94527.25;;;18.75;65.37
67545;BME280;54380;47.770;11.150;2023-07-29T05:32:37;94535.88;;;18.72;66.15
67545;BME280;54380;47.770;11.150;2023-07-29T05:35:05;94533.63;;;18.65;66.31
67545;BME280;54380;47.770;11.150;2023-07-29T05:37:32;94527.03;;;18.63;65.69
67545;BME280;54380;47.770;11.150;2023-07-29T05:39:58;94515.69;;;18.66;65.96
67545;BME280;54380;47.770;11.150;2023-07-29T05:42:26;94512.41;;;18.69;65.94
67545;BME280;54380;47.770;11.150;2023-07-29T05:44:53;94510.53;;;18.70;66.58
67545;BME280;54380;47.770;11.150;2023-07-29T05:47:19;94511.31;;;18.70;67.04
67545;BME280;54380;47.770;11.150;2023-07-29T05:49:46;94501.25;;;18.67;67.26
67545;BME280;54380;47.770;11.150;2023-07-29T05:52:13;94508.47;;;18.67;67.88
67545;BME280;54380;47.770;11.150;2023-07-29T05:54:40;94504.38;;;18.60;68.15
67545;BME280;54380;47.770;11.150;2023-07-29T05:57:07;94511.44;;;18.56;68.26
67545;BME280;54380;47.770;11.150;2023-07-29T05:59:35;94531.56;;;18.54;68.48
67545;BME280;54380;47.770;11.150;2023-07-29T06:02:02;94549.91;;;18.47;67.80
67545;BME280;54380;47.770;11.150;2023-07-29T06:04:29;94567.03;;;18.46;67.37
67545;BME280;54380;47.770;11.150;2023-07-29T06:06:56;94562.78;;;18.45;66.10
67545;BME280;54380;47.770;11.150;2023-07-29T06:09:23;94569.41;;;18.47;66.00
67545;BME280;54380;47.770;11.150;2023-07-29T06:11:49;94558.56;;;18.52;65.60
67545;BME280;54380;47.770;11.150;2023-07-29T06:14:19;94561.00;;;18.62;66.16
67545;BME280;54380;47.770;11.150;2023-07-29T06:16:48;94561.50;;;18.73;65.83
67545;BME280;54380;47.770;11.150;2023-07-29T06:19:14;94563.72;;;18.80;65.21
67545;BME280;54380;47.770;11.150;2023-07-29T06:21:44;94575.25;;;18.89;65.00
67545;BME280;54380;47.770;11.150;2023-07-29T06:24:11;94581.75;;;18.97;64.68
67545;BME280;54380;47.770;11.150;2023-07-29T06:26:37;94585.06;;;19.02;65.22
67545;BME280;54380;47.770;11.150;2023-07-29T06:29:04;94600.19;;;19.07;65.59
67545;BME280;54380;47.770;11.150;2023-07-29T06:31:31;94617.16;;;19.11;64.67
67545;BME280;54380;47.770;11.150;2023-07-29T06:34:00;94622.22;;;19.13;63.54
67545;BME280;54380;47.770;11.150;2023-07-29T06:36:27;94611.06;;;19.19;63.16
67545;BME280;54380;47.770;11.150;2023-07-29T06:38:54;94604.16;;;19.27;63.59
67545;BME280;54380;47.770;11.150;2023-07-29T06:41:20;94592.22;;;19.33;64.55
67545;BME280;54380;47.770;11.150;2023-07-29T06:43:48;94591.13;;;19.34;64.71
67545;BME280;54380;47.770;11.150;2023-07-29T06:46:15;94580.88;;;19.36;64.13
67545;BME280;54380;47.770;11.150;2023-07-29T06:48:42;94581.81;;;19.40;63.67
67545;BME280;54380;47.770;11.150;2023-07-29T06:51:09;94583.25;;;19.46;64.05
67545;BME280;54380;47.770;11.150;2023-07-29T06:53:36;94584.19;;;19.50;64.31
67545;BME280;54380;47.770;11.150;2023-07-29T06:56:03;94574.44;;;19.55;64.46
67545;BME280;54380;47.770;11.150;2023-07-29T06:58:29;94580.75;;;19.59;65.28
67545;BME280;54380;47.770;11.150;2023-07-29T07:00:56;94577.75;;;19.60;65.12
67545;BME280;54380;47.770;11.150;2023-07-29T07:03:23;94582.97;;;19.65;65.76
67545;BME280;54380;47.770;11.150;2023-07-29T07:05:50;94575.88;;;19.69;66.23
67545;BME280;54380;47.770;11.150;2023-07-29T07:08:18;94577.97;;;19.72;65.36
67545;BME280;54380;47.770;11.150;2023-07-29T07:10:46;94572.75;;;19.76;65.04
67545;BME280;54380;47.770;11.150;2023-07-29T07:13:13;94566.59;;;19.84;64.95
67545;BME280;54380;47.770;11.150;2023-07-29T07:15:39;94562.19;;;19.88;65.58
67545;BME280;54380;47.770;11.150;2023-07-29T07:18:06;94563.13;;;19.92;65.88
67545;BME280;54380;47.770;11.150;2023-07-29T07:20:33;94558.56;;;19.93;66.38
67545;BME280;54380;47.770;11.150;2023-07-29T07:23:00;94543.75;;;19.95;66.68
67545;BME280;54380;47.770;11.150;2023-07-29T07:25:28;94545.50;;;19.91;66.56
67545;BME280;54380;47.770;11.150;2023-07-29T07:27:55;94549.44;;;19.85;66.37
67545;BME280;54380;47.770;11.150;2023-07-29T07:30:22;94548.19;;;19.83;66.36
67545;BME280;54380;47.770;11.150;2023-07-29T07:32:48;94550.88;;;19.83;66.68
67545;BME280;54380;47.770;11.150;2023-07-29T07:35:16;94538.25;;;19.83;66.95
67545;BME280;54380;47.770;11.150;2023-07-29T07:37:42;94542.50;;;19.84;66.72
67545;BME280;54380;47.770;11.150;2023-07-29T07:40:09;94549.25;;;19.90;67.24
67545;BME280;54380;47.770;11.150;2023-07-29T07:42:37;94538.22;;;20.01;67.04
67545;BME280;54380;47.770;11.150;2023-07-29T07:45:04;94540.56;;;20.20;66.11
67545;BME280;54380;47.770;11.150;2023-07-29T07:47:31;94548.88;;;20.35;66.92
67545;BME280;54380;47.770;11.150;2023-07-29T07:49:58;94553.09;;;20.45;66.43
67545;BME280;54380;47.770;11.150;2023-07-29T07:52:25;94548.97;;;20.48;66.22
67545;BME280;54380;47.770;11.150;2023-07-29T07:54:51;94546.47;;;20.43;65.79
67545;BME280;54380;47.770;11.150;2023-07-29T07:57:18;94547.63;;;20.33;65.93
67545;BME280;54380;47.770;11.150;2023-07-29T07:59:46;94561.97;;;20.28;66.59
67545;BME280;54380;47.770;11.150;2023-07-29T08:02:13;94564.50;;;20.25;66.90
67545;BME280;54380;47.770;11.150;2023-07-29T08:04:39;94557.25;;;20.25;66.50
67545;BME280;54380;47.770;11.150;2023-07-29T08:07:06;94563.88;;;20.28;66.69
67545;BME280;54380;47.770;11.150;2023-07-29T08:09:32;94573.19;;;20.30;66.92
67545;BME280;54380;47.770;11.150;2023-07-29T08:11:59;94569.69;;;20.30;66.29
67545;BME280;54380;47.770;11.150;2023-07-29T08:14:25;94573.31;;;20.34;65.41
67545;BME280;54380;47.770;11.150;2023-07-29T08:16:54;94574.06;;;20.43;65.01
67545;BME280;54380;47.770;11.150;2023-07-29T08:19:20;94582.41;;;20.50;64.45
67545;BME280;54380;47.770;11.150;2023-07-29T08:21:48;94591.72;;;20.53;65.18
67545;BME280;54380;47.770;11.150;2023-07-29T08:24:14;94569.47;;;20.52;65.72
67545;BME280;54380;47.770;11.150;2023-07-29T08:26:41;94555.47;;;20.47;65.13
67545;BME280;54380;47.770;11.150;2023-07-29T08:29:08;94539.84;;;20.40;65.46
67545;BME280;54380;47.770;11.150;2023-07-29T08:31:34;94529.94;;;20.41;65.55
67545;BME280;54380;47.770;11.150;2023-07-29T08:34:02;94529.75;;;20.46;65.81
67545;BME280;54380;47.770;11.150;2023-07-29T08:36:29;94525.03;;;20.51;65.35
67545;BME280;54380;47.770;11.150;2023-07-29T08:38:55;94533.53;;;20.62;65.71
67545;BME280;54380;47.770;11.150;2023-07-29T08:41:25;94538.53;;;20.72;65.52
67545;BME280;54380;47.770;11.150;2023-07-29T08:43:52;94534.69;;;20.82;65.45
67545;BME280;54380;47.770;11.150;2023-07-29T08:46:21;94543.13;;;20.93;65.21
67545;BME280;54380;47.770;11.150;2023-07-29T08:48:47;94537.41;;;21.03;64.65
67545;BME280;54380;47.770;11.150;2023-07-29T08:51:16;94537.97;;;21.17;64.85
67545;BME280;54380;47.770;11.150;2023-07-29T08:53:43;94538.50;;;21.32;64.76
67545;BME280;54380;47.770;11.150;2023-07-29T08:56:10;94539.72;;;21.43;64.17
67545;BME280;54380;47.770;11.150;2023-07-29T08:58:36;94535.19;;;21.56;64.16
67545;BME280;54380;47.770;11.150;2023-07-29T09:01:04;94540.28;;;21.69;64.39
67545;BME280;54380;47.770;11.150;2023-07-29T09:03:30;94537.66;;;21.82;64.43
67545;BME280;54380;47.770;11.150;2023-07-29T09:05:57;94544.34;;;21.97;64.25
67545;BME280;54380;47.770;11.150;2023-07-29T09:08:26;94551.53;;;22.05;62.84
67545;BME280;54380;47.770;11.150;2023-07-29T09:10:53;94541.34;;;22.10;61.57
67545;BME280;54380;47.770;11.150;2023-07-29T09:13:20;94540.00;;;22.25;62.46
67545;BME280;54380;47.770;11.150;2023-07-29T09:15:46;94538.91;;;22.39;62.16
67545;BME280;54380;47.770;11.150;2023-07-29T09:18:14;94532.94;;;22.45;61.75
67545;BME280;54380;47.770;11.150;2023-07-29T09:20:41;94528.59;;;22.53;61.65
67545;BME280;54380;47.770;11.150;2023-07-29T09:23:09;94532.75;;;22.63;61.44
67545;BME280;54380;47.770;11.150;2023-07-29T09:25:40;94535.56;;;22.78;60.84
67545;BME280;54380;47.770;11.150;2023-07-29T09:28:07;94537.59;;;22.94;60.07
67545;BME280;54380;47.770;11.150;2023-07-29T09:30:34;94527.66;;;23.07;60.80
67545;BME280;54380;47.770;11.150;2023-07-29T09:33:01;94518.31;;;23.16;60.35
67545;BME280;54380;47.770;11.150;2023-07-29T09:35:28;94510.00;;;23.21;59.69
67545;BME280;54380;47.770;11.150;2023-07-29T09:37:54;94527.94;;;23.30;59.99
67545;BME280;54380;47.770;11.150;2023-07-29T09:40:21;94518.94;;;23.38;59.68
67545;BME280;54380;47.770;11.150;2023-07-29T09:42:49;94518.25;;;23.53;60.53
67545;BME280;54380;47.770;11.150;2023-07-29T09:45:20;94512.81;;;23.65;59.64
67545;BME280;54380;47.770;11.150;2023-07-29T09:47:47;94517.50;;;23.81;59.99
67545;BME280;54380;47.770;11.150;2023-07-29T09:50:14;94517.19;;;23.98;60.02
67545;BME280;54380;47.770;11.150;2023-07-29T09:52:41;94509.16;;;24.14;59.94
67545;BME280;54380;47.770;11.150;2023-07-29T09:55:08;94509.97;;;24.30;60.08
67545;BME280;54380;47.770;11.150;2023-07-29T09:57:35;94517.53;;;24.41;59.48
67545;BME280;54380;47.770;11.150;2023-07-29T10:00:07;94512.72;;;24.46;58.57
67545;BME280;54380;47.770;11.150;2023-07-29T10:02:38;94508.97;;;24.51;58.18
67545;BME280;54380;47.770;11.150;2023-07-29T10:05:06;94504.09;;;24.57;57.62
67545;BME280;54380;47.770;11.150;2023-07-29T10:07:33;94506.09;;;24.60;56.23
67545;BME280;54380;47.770;11.150;2023-07-29T10:10:05;94503.66;;;24.70;56.72
67545;BME280;54380;47.770;11.150;2023-07-29T10:12:33;94504.09;;;24.88;57.10
67545;BME280;54380;47.770;11.150;2023-07-29T10:15:00;94501.53;;;24.95;56.42
67545;BME280;54380;47.770;11.150;2023-07-29T10:17:28;94497.78;;;25.00;54.76
67545;BME280;54380;47.770;11.150;2023-07-29T10:19:55;94497.44;;;25.02;53.77
67545;BME280;54380;47.770;11.150;2023-07-29T10:22:25;94497.88;;;25.04;53.78
67545;BME280;54380;47.770;11.150;2023-07-29T10:24:54;94499.25;;;25.13;53.00
67545;BME280;54380;47.770;11.150;2023-07-29T10:27:21;94500.19;;;25.37;53.81
67545;BME280;54380;47.770;11.150;2023-07-29T10:29:49;94501.97;;;25.68;52.18
67545;BME280;54380;47.770;11.150;2023-07-29T10:32:16;94492.53;;;25.78;49.85
67545;BME280;54380;47.770;11.150;2023-07-29T10:34:45;94495.16;;;25.74;50.95
67545;BME280;54380;47.770;11.150;2023-07-29T10:37:11;94496.44;;;25.80;51.23
67545;BME280;54380;47.770;11.150;2023-07-29T10:39:38;94489.47;;;25.99;51.90
67545;BME280;54380;47.770;11.150;2023-07-29T10:42:06;94483.38;;;26.25;51.69
67545;BME280;54380;47.770;11.150;2023-07-29T10:44:45;94489.94;;;26.47;50.10
67545;BME280;54380;47.770;11.150;2023-07-29T10:47:12;94487.44;;;26.58;48.77
67545;BME280;54380;47.770;11.150;2023-07-29T10:49:39;94483.75;;;26.46;49.32
67545;BME280;54380;47.770;11.150;2023-07-29T10:52:07;94485.47;;;26.35;48.88
67545;BME280;54380;47.770;11.150;2023-07-29T10:54:41;94467.13;;;26.25;48.40
67545;BME280;54380;47.770;11.150;2023-07-29T10:57:08;94484.66;;;26.12;48.56
67545;BME280;54380;47.770;11.150;2023-07-29T10:59:38;94484.91;;;26.03;48.46
67545;BME280;54380;47.770;11.150;2023-07-29T11:02:11;94482.97;;;26.03;48.45
67545;BME280;54380;47.770;11.150;2023-07-29T11:04:45;94480.47;;;26.14;48.82
67545;BME280;54380;47.770;11.150;2023-07-29T11:07:23;94476.06;;;26.25;47.99
67545;BME280;54380;47.770;11.150;2023-07-29T11:10:02;94473.34;;;26.25;47.57
67545;BME280;54380;47.770;11.150;2023-07-29T11:12:42;94469.97;;;26.32;47.62
67545;BME280;54380;47.770;11.150;2023-07-29T11:15:12;94459.63;;;26.38;47.84
67545;BME280;54380;47.770;11.150;2023-07-29T11:17:40;94458.50;;;26.39;47.89
67545;BME280;54380;47.770;11.150;2023-07-29T11:20:07;94468.44;;;26.54;47.97
67545;BME280;54380;47.770;11.150;2023-07-29T11:25:17;94464.66;;;26.85;47.52
67545;BME280;54380;47.770;11.150;2023-07-29T11:27:45;94454.88;;;27.04;46.95
67545;BME280;54380;47.770;11.150;2023-07-29T11:30:13;94457.38;;;27.16;46.10
67545;BME280;54380;47.770;11.150;2023-07-29T11:32:41;94453.63;;;27.24;45.94
67545;BME280;54380;47.770;11.150;2023-07-29T11:35:17;94454.19;;;27.37;46.12
67545;BME280;54380;47.770;11.150;2023-07-29T11:37:45;94448.63;;;27.56;45.31
67545;BME280;54380;47.770;11.150;2023-07-29T11:40:13;94456.41;;;27.62;44.88
67545;BME280;54380;47.770;11.150;2023-07-29T11:42:42;94456.38;;;27.58;44.52
67545;BME280;54380;47.770;11.150;2023-07-29T11:45:11;94451.66;;;27.51;44.54
67545;BME280;54380;47.770;11.150;2023-07-29T11:47:40;94442.81;;;27.54;44.67
67545;BME280;54380;47.770;11.150;2023-07-29T11:50:22;94452.38;;;27.48;44.89
67545;BME280;54380;47.770;11.150;2023-07-29T11:52:48;94450.44;;;27.49;45.23
67545;BME280;54380;47.770;11.150;2023-07-29T11:55:16;94445.03;;;27.49;45.61
67545;BME280;54380;47.770;11.150;2023-07-29T11:57:46;94442.94;;;27.65;45.31
67545;BME280;54380;47.770;11.150;2023-07-29T12:00:17;94447.44;;;27.88;45.16
67545;BME280;54380;47.770;11.150;2023-07-29T12:02:44;94441.81;;;28.04;44.10
67545;BME280;54380;47.770;11.150;2023-07-29T12:05:13;94442.09;;;27.95;43.26
67545;BME280;54380;47.770;11.150;2023-07-29T12:07:41;94426.94;;;27.90;43.02
67545;BME280;54380;47.770;11.150;2023-07-29T12:10:09;94424.66;;;27.92;43.16
67545;BME280;54380;47.770;11.150;2023-07-29T12:12:47;94415.81;;;27.99;43.06
67545;BME280;54380;47.770;11.150;2023-07-29T12:15:22;94422.88;;;28.07;42.60
67545;BME280;54380;47.770;11.150;2023-07-29T12:17:52;94408.13;;;28.08;42.64
67545;BME280;54380;47.770;11.150;2023-07-29T12:20:19;94400.06;;;28.15;42.63
67545;BME280;54380;47.770;11.150;2023-07-29T12:22:50;94392.38;;;28.24;42.83
67545;BME280;54380;47.770;11.150;2023-07-29T12:25:17;94397.09;;;28.31;43.33
67545;BME280;54380;47.770;11.150;2023-07-29T12:27:44;94388.31;;;28.45;43.22
67545;BME280;54380;47.770;11.150;2023-07-29T12:30:12;94392.69;;;28.60;42.75
67545;BME280;54380;47.770;11.150;2023-07-29T12:32:42;94385.78;;;28.70;42.65
67545;BME280;54380;47.770;11.150;2023-07-29T12:35:10;94375.72;;;28.78;41.69
67545;BME280;54380;47.770;11.150;2023-07-29T12:37:36;94376.91;;;28.77;41.75
67545;BME280;54380;47.770;11.150;2023-07-29T12:40:05;94371.06;;;28.75;41.33
67545;BME280;54380;47.770;11.150;2023-07-29T12:42:32;94381.56;;;28.76;41.33
67545;BME280;54380;47.770;11.150;2023-07-29T12:44:59;94372.59;;;28.72;41.89
67545;BME280;54380;47.770;11.150;2023-07-29T12:47:31;94379.19;;;28.71;42.09
67545;BME280;54380;47.770;11.150;2023-07-29T12:49:57;94366.44;;;28.79;42.21
67545;BME280;54380;47.770;11.150;2023-07-29T12:52:24;94370.38;;;28.88;41.93
67545;BME280;54380;47.770;11.150;2023-07-29T12:54:51;94370.69;;;28.76;41.76